Time;durP1;ratioP1;P1;durP2;ratioP2;P2;SDS_P1;SDS_P2;PMS_P1;PMS_P2;Temp;Humidity;BMP_temperature;BMP_pressure;BME280_temperature;BME280_humidity;BME280_pressure;Samples;Min_cycle;Max_cycle;Signal;HPM_P1;HPM_P2
2021/09/02 00:01:05;;;;;;;12.43;9.10;;;12.30;99.90;;;;;;5128062;27;20601;-36
2021/09/02 00:03:30;;;;;;;14.70;9.70;;;12.40;99.90;;;;;;5127988;27;20271;-36
2021/09/02 00:05:56;;;;;;;17.00;11.67;;;12.40;99.90;;;;;;5128585;27;20215;-36
2021/09/02 00:08:22;;;;;;;15.17;10.67;;;12.50;99.90;;;;;;5128478;27;20404;-36
2021/09/02 00:10:47;;;;;;;13.93;10.50;;;12.60;99.90;;;;;;5121030;27;20230;-36
2021/09/02 00:13:13;;;;;;;11.77;8.80;;;12.80;99.90;;;;;;5122800;27;20191;-36
2021/09/02 00:15:39;;;;;;;14.00;10.17;;;12.90;99.90;;;;;;5127146;27;20190;-37
2021/09/02 00:18:05;;;;;;;13.10;9.83;;;13.00;99.90;;;;;;5126152;27;20427;-38
2021/09/02 00:20:31;;;;;;;11.60;9.37;;;13.00;99.90;;;;;;5128187;27;20429;-37
2021/09/02 00:22:57;;;;;;;14.43;9.57;;;12.90;99.90;;;;;;5109058;27;20225;-36
2021/09/02 00:25:23;;;;;;;12.50;10.63;;;12.90;99.90;;;;;;5122375;27;20666;-36
2021/09/02 00:27:48;;;;;;;14.93;11.17;;;12.90;99.90;;;;;;5124428;27;20477;-37
2021/09/02 00:30:14;;;;;;;15.77;10.80;;;12.90;99.90;;;;;;5127361;27;20215;-36
2021/09/02 00:32:40;;;;;;;15.37;11.50;;;12.90;99.90;;;;;;5127400;27;20426;-36
2021/09/02 00:35:06;;;;;;;16.67;11.40;;;12.90;99.90;;;;;;5127712;27;20477;-37
2021/09/02 00:37:32;;;;;;;15.60;10.47;;;12.90;99.90;;;;;;5127555;27;20191;-36
2021/09/02 00:39:58;;;;;;;18.30;12.60;;;12.90;99.90;;;;;;5124775;27;20417;-37
2021/09/02 00:42:23;;;;;;;19.50;12.63;;;12.90;99.90;;;;;;5120845;27;20241;-37
2021/09/02 00:44:49;;;;;;;20.57;12.57;;;12.90;99.90;;;;;;5127071;27;20197;-37
2021/09/02 00:47:16;;;;;;;16.20;10.40;;;12.90;99.90;;;;;;5127413;27;20194;-37
2021/09/02 00:49:43;;;;;;;14.00;9.90;;;12.80;99.90;;;;;;5127345;27;20213;-36
2021/09/02 00:52:29;;;;;;;14.60;9.93;;;12.80;99.90;;;;;;5127194;27;20790;-36
2021/09/02 00:55:00;;;;;;;16.07;10.80;;;12.80;99.90;;;;;;5125790;27;20429;-37
2021/09/02 00:57:27;;;;;;;15.33;10.60;;;12.80;99.90;;;;;;5121143;27;20691;-37
2021/09/02 00:59:54;;;;;;;15.93;11.20;;;12.80;99.90;;;;;;5123515;27;20413;-36
2021/09/02 01:02:21;;;;;;;14.97;10.97;;;12.80;99.90;;;;;;5126763;27;20472;-37
2021/09/02 01:04:47;;;;;;;16.77;10.20;;;12.80;99.90;;;;;;5127615;27;20482;-37
2021/09/02 01:07:13;;;;;;;14.20;9.60;;;12.80;99.90;;;;;;5127085;27;20416;-37
2021/09/02 01:09:40;;;;;;;12.20;9.47;;;12.80;99.90;;;;;;5127301;27;20211;-36
2021/09/02 01:12:29;;;;;;;13.50;10.03;;;12.70;99.90;;;;;;5116117;27;20446;-36
2021/09/02 01:14:55;;;;;;;15.47;11.70;;;12.70;99.90;;;;;;5127183;27;20700;-37
2021/09/02 01:17:22;;;;;;;17.73;10.53;;;12.70;99.90;;;;;;5125617;27;20933;-38
2021/09/02 01:19:50;;;;;;;15.47;11.10;;;12.70;99.90;;;;;;5127183;27;20802;-36
2021/09/02 01:22:15;;;;;;;15.23;10.90;;;12.70;99.90;;;;;;5126187;27;20889;-36
2021/09/02 01:24:42;;;;;;;12.70;10.03;;;12.70;99.90;;;;;;5108958;27;20425;-36
2021/09/02 01:27:07;;;;;;;13.03;8.93;;;12.70;99.90;;;;;;5115103;27;20187;-36
2021/09/02 01:29:33;;;;;;;12.60;10.00;;;12.50;99.90;;;;;;5125950;27;20428;-37
2021/09/02 01:31:58;;;;;;;16.53;11.20;;;12.40;99.90;;;;;;5108009;27;20240;-37
2021/09/02 01:34:24;;;;;;;15.93;11.90;;;12.40;99.90;;;;;;5126584;27;20189;-36
2021/09/02 01:36:50;;;;;;;15.57;11.33;;;12.30;99.90;;;;;;5126361;27;20191;-37
2021/09/02 01:39:20;;;;;;;16.70;10.67;;;12.10;99.90;;;;;;5126761;27;20305;-36
2021/09/02 01:41:46;;;;;;;14.87;10.07;;;12.10;99.90;;;;;;5119952;27;20263;-37
2021/09/02 01:44:12;;;;;;;12.37;9.50;;;12.00;99.90;;;;;;5118612;28;21112;-37
2021/09/02 01:46:38;;;;;;;13.40;9.93;;;12.00;99.90;;;;;;5126598;28;20493;-37
2021/09/02 01:49:04;;;;;;;16.10;10.00;;;12.00;99.90;;;;;;5126875;28;20198;-37
2021/09/02 01:51:29;;;;;;;15.50;10.83;;;11.90;99.90;;;;;;5126139;28;20277;-37
2021/09/02 01:53:55;;;;;;;16.80;11.60;;;11.90;99.90;;;;;;5126906;28;20697;-37
2021/09/02 01:56:21;;;;;;;16.47;11.27;;;12.00;99.90;;;;;;5121451;28;20259;-36
2021/09/02 01:58:46;;;;;;;12.50;9.17;;;12.10;99.90;;;;;;5122134;28;20412;-36
2021/09/02 02:01:12;;;;;;;12.77;9.23;;;12.10;99.90;;;;;;5107816;28;20555;-37
2021/09/02 02:03:38;;;;;;;14.67;10.20;;;12.10;99.90;;;;;;5126235;28;20633;-37
2021/09/02 02:06:03;;;;;;;13.60;9.77;;;12.30;99.90;;;;;;5125761;28;20305;-37
2021/09/02 02:08:29;;;;;;;17.53;10.70;;;12.30;99.90;;;;;;5126492;28;20206;-36
2021/09/02 02:10:55;;;;;;;10.70;8.27;;;12.30;99.90;;;;;;5120987;28;20192;-37
2021/09/02 02:13:21;;;;;;;12.60;8.80;;;12.10;99.90;;;;;;5121120;28;20191;-37
2021/09/02 02:15:46;;;;;;;13.10;8.40;;;11.90;99.90;;;;;;5117473;28;20194;-37
2021/09/02 02:18:12;;;;;;;16.90;9.87;;;11.80;99.90;;;;;;5104913;28;20270;-37
2021/09/02 02:20:38;;;;;;;9.80;8.07;;;11.80;99.90;;;;;;5120278;28;20427;-38
2021/09/02 02:23:04;;;;;;;13.83;9.90;;;11.70;99.90;;;;;;5126009;28;20210;-37
2021/09/02 02:25:30;;;;;;;12.20;8.40;;;11.70;99.90;;;;;;5107407;28;20197;-36
2021/09/02 02:27:56;;;;;;;14.23;9.27;;;11.70;99.90;;;;;;5114143;28;20404;-37
2021/09/02 02:30:22;;;;;;;13.50;9.10;;;11.60;99.90;;;;;;5123590;28;20302;-37
2021/09/02 02:32:48;;;;;;;15.03;10.30;;;11.60;99.90;;;;;;5125800;28;20425;-37
2021/09/02 02:35:16;;;;;;;14.37;9.60;;;11.70;99.90;;;;;;5125892;28;20429;-37
2021/09/02 02:37:43;;;;;;;15.60;9.77;;;11.90;99.90;;;;;;5125759;28;20444;-36
2021/09/02 02:40:11;;;;;;;13.83;10.20;;;12.00;99.90;;;;;;5128786;27;20416;-37
2021/09/02 02:42:38;;;;;;;13.63;9.60;;;12.10;99.90;;;;;;5118264;27;20456;-36
2021/09/02 02:45:04;;;;;;;11.57;9.63;;;12.10;99.90;;;;;;5130077;27;20508;-37
2021/09/02 02:47:29;;;;;;;12.70;9.57;;;12.20;99.90;;;;;;5129788;27;20416;-37
2021/09/02 02:49:55;;;;;;;19.50;10.30;;;12.20;99.90;;;;;;5129502;27;20416;-37
2021/09/02 02:52:21;;;;;;;13.50;9.30;;;12.30;99.90;;;;;;5129686;27;20195;-36
2021/09/02 02:54:47;;;;;;;16.17;10.60;;;12.30;99.90;;;;;;5129911;27;20270;-37
2021/09/02 02:57:12;;;;;;;14.73;10.83;;;12.30;99.90;;;;;;5119011;27;20215;-37
2021/09/02 02:59:38;;;;;;;16.63;11.57;;;12.30;99.90;;;;;;5129196;27;20195;-36
2021/09/02 03:02:04;;;;;;;15.17;11.30;;;12.30;99.90;;;;;;5110949;27;20351;-37
2021/09/02 03:04:29;;;;;;;15.97;10.00;;;12.30;99.90;;;;;;5129296;27;20290;-37
2021/09/02 03:06:55;;;;;;;17.67;11.00;;;12.20;99.90;;;;;;5129630;27;20421;-37
2021/09/02 03:09:21;;;;;;;18.27;11.23;;;12.20;99.90;;;;;;5129300;27;20199;-37
2021/09/02 03:11:46;;;;;;;18.27;11.27;;;12.30;99.90;;;;;;5124465;27;20192;-37
2021/09/02 03:14:12;;;;;;;13.63;9.43;;;12.30;99.90;;;;;;5125882;27;20195;-37
2021/09/02 03:16:38;;;;;;;12.10;9.07;;;12.20;99.90;;;;;;5124519;27;20198;-37
2021/09/02 03:19:04;;;;;;;14.40;10.33;;;12.20;99.90;;;;;;5129750;27;20191;-37
2021/09/02 03:21:29;;;;;;;13.87;9.27;;;12.00;99.90;;;;;;5128478;27;20222;-37
2021/09/02 03:23:55;;;;;;;14.90;11.03;;;11.90;99.90;;;;;;5129564;27;20600;-37
2021/09/02 03:26:21;;;;;;;17.93;11.27;;;11.90;99.90;;;;;;5126153;27;20577;-36
2021/09/02 03:28:47;;;;;;;14.40;9.87;;;12.00;99.90;;;;;;5121532;27;20262;-36
2021/09/02 03:31:12;;;;;;;13.57;9.87;;;12.10;99.90;;;;;;5102997;27;20186;-37
2021/09/02 03:33:38;;;;;;;12.20;9.30;;;12.20;99.90;;;;;;5128602;27;20183;-37
2021/09/02 03:36:04;;;;;;;10.17;8.60;;;12.20;99.90;;;;;;5128813;27;20198;-37
2021/09/02 03:38:30;;;;;;;10.70;7.90;;;12.20;99.90;;;;;;5129018;27;20190;-37
2021/09/02 03:40:56;;;;;;;13.77;9.43;;;12.10;99.90;;;;;;5128878;27;20413;-37
2021/09/02 03:43:21;;;;;;;10.10;7.80;;;12.10;99.90;;;;;;5118091;27;20251;-36
2021/09/02 03:45:48;;;;;;;11.03;8.60;;;12.00;99.90;;;;;;5128606;27;20425;-37
2021/09/02 03:48:14;;;;;;;15.10;10.63;;;12.00;99.90;;;;;;5128329;27;20271;-37
2021/09/02 03:50:40;;;;;;;14.63;10.30;;;12.00;99.90;;;;;;5127939;27;20473;-37
2021/09/02 03:53:06;;;;;;;13.87;10.33;;;12.20;99.90;;;;;;5128230;27;20420;-37
2021/09/02 03:55:32;;;;;;;12.70;9.97;;;12.00;99.90;;;;;;5128716;27;20481;-36
2021/09/02 03:57:57;;;;;;;10.87;7.93;;;12.00;99.90;;;;;;5121910;27;20193;-37
2021/09/02 04:00:23;;;;;;;10.80;8.60;;;11.90;99.90;;;;;;5122359;27;20680;-36
2021/09/02 04:02:48;;;;;;;10.67;8.77;;;11.70;99.90;;;;;;5127538;27;20206;-37
2021/09/02 04:05:14;;;;;;;11.63;7.30;;;11.70;99.90;;;;;;5128379;27;20236;-37
2021/09/02 04:07:40;;;;;;;12.90;9.50;;;11.60;99.90;;;;;;5128098;27;20203;-37
2021/09/02 04:10:06;;;;;;;14.87;8.23;;;11.70;99.90;;;;;;5128103;27;20278;-37
2021/09/02 04:12:32;;;;;;;11.30;8.67;;;11.70;99.90;;;;;;5119343;27;20192;-37
2021/09/02 04:14:58;;;;;;;12.73;8.97;;;11.70;99.90;;;;;;5123112;27;20423;-36
2021/09/02 04:17:23;;;;;;;15.40;9.20;;;11.50;99.90;;;;;;5126449;27;20423;-37
2021/09/02 04:19:49;;;;;;;15.13;10.13;;;11.50;99.90;;;;;;5128014;27;20420;-37
2021/09/02 04:22:15;;;;;;;13.40;9.87;;;11.40;99.90;;;;;;5127809;27;20645;-38
2021/09/02 04:24:40;;;;;;;17.37;10.83;;;11.50;99.90;;;;;;5127985;27;20524;-36
2021/09/02 04:27:08;;;;;;;11.67;8.90;;;11.30;99.90;;;;;;5122497;27;20273;-37
2021/09/02 04:29:33;;;;;;;13.13;9.37;;;11.30;99.90;;;;;;5126035;27;20175;-37
2021/09/02 04:31:59;;;;;;;13.57;10.00;;;11.40;99.90;;;;;;5127114;27;20460;-37
2021/09/02 04:34:25;;;;;;;15.23;9.97;;;11.40;99.90;;;;;;5128147;27;20226;-37
2021/09/02 04:36:50;;;;;;;16.30;10.77;;;11.40;99.90;;;;;;5127241;27;20600;-37
2021/09/02 04:39:16;;;;;;;14.03;9.90;;;11.50;99.90;;;;;;5127914;27;20183;-37
2021/09/02 04:41:42;;;;;;;13.33;9.83;;;11.50;99.90;;;;;;5126561;27;20214;-36
2021/09/02 04:44:07;;;;;;;13.43;9.63;;;11.50;99.90;;;;;;5118342;27;20171;-37
2021/09/02 04:46:33;;;;;;;13.07;9.90;;;11.60;99.90;;;;;;5123937;27;20187;-36
2021/09/02 04:48:59;;;;;;;16.20;9.50;;;11.60;99.90;;;;;;5109205;27;20179;-36
2021/09/02 04:51:24;;;;;;;15.43;9.73;;;11.60;99.90;;;;;;5127028;27;20179;-36
2021/09/02 04:53:50;;;;;;;16.33;9.13;;;11.70;99.90;;;;;;5127461;27;20206;-36
2021/09/02 04:56:16;;;;;;;14.50;8.87;;;11.80;99.90;;;;;;5108713;27;20570;-36
2021/09/02 04:58:42;;;;;;;12.07;8.70;;;11.80;99.90;;;;;;5114451;27;20229;-36
2021/09/02 05:01:07;;;;;;;11.43;9.23;;;11.70;99.90;;;;;;5127121;27;20662;-37
2021/09/02 05:03:33;;;;;;;11.73;8.80;;;11.70;99.90;;;;;;5126766;27;20206;-36
2021/09/02 05:05:58;;;;;;;10.00;8.87;;;11.60;99.90;;;;;;5127323;27;20560;-36
2021/09/02 05:08:24;;;;;;;10.40;7.83;;;11.60;99.90;;;;;;5127288;27;20683;-37
2021/09/02 05:10:51;;;;;;;10.53;8.30;;;11.70;99.90;;;;;;5127230;27;20208;-36
2021/09/02 05:13:17;;;;;;;11.90;8.57;;;11.70;99.90;;;;;;5115995;27;20184;-36
2021/09/02 05:15:43;;;;;;;10.73;8.20;;;11.60;99.90;;;;;;5127149;27;20417;-37
2021/09/02 05:18:08;;;;;;;11.93;8.67;;;11.60;99.90;;;;;;5125947;27;20417;-36
2021/09/02 05:20:34;;;;;;;13.70;8.63;;;11.60;99.90;;;;;;5127000;27;20198;-36
2021/09/02 05:23:00;;;;;;;11.67;9.10;;;11.80;99.90;;;;;;5126706;27;20234;-37
2021/09/02 05:25:26;;;;;;;13.87;10.30;;;11.60;99.90;;;;;;5108395;27;20179;-37
2021/09/02 05:27:51;;;;;;;11.67;8.60;;;11.70;99.90;;;;;;5102984;27;20172;-36
2021/09/02 05:30:17;;;;;;;11.23;8.57;;;11.70;99.90;;;;;;5123706;27;20415;-37
2021/09/02 05:32:44;;;;;;;10.20;9.10;;;11.60;99.90;;;;;;5126709;27;20643;-36
2021/09/02 05:35:11;;;;;;;12.70;10.00;;;11.60;99.90;;;;;;5126470;27;20409;-37
2021/09/02 05:37:37;;;;;;;11.43;8.30;;;11.60;99.90;;;;;;5126610;27;20417;-37
2021/09/02 05:40:04;;;;;;;10.97;8.60;;;11.70;99.90;;;;;;5126644;27;20968;-37
2021/09/02 05:42:30;;;;;;;14.60;9.00;;;11.80;99.90;;;;;;5123439;27;20453;-36
2021/09/02 05:44:55;;;;;;;13.17;8.90;;;11.80;99.90;;;;;;5120227;28;20938;-36
2021/09/02 05:47:21;;;;;;;13.33;8.50;;;11.80;99.90;;;;;;5120379;28;20202;-37
2021/09/02 05:49:46;;;;;;;12.30;8.47;;;11.90;99.90;;;;;;5126825;28;20684;-36
2021/09/02 05:52:12;;;;;;;12.97;8.73;;;12.00;99.90;;;;;;5107836;28;20291;-36
2021/09/02 05:54:39;;;;;;;11.20;8.80;;;12.10;99.90;;;;;;5126952;28;20191;-36
2021/09/02 05:57:05;;;;;;;11.77;8.60;;;12.20;99.90;;;;;;5126140;28;20186;-36
2021/09/02 05:59:30;;;;;;;11.77;7.87;;;12.30;99.90;;;;;;5116926;28;20436;-37
2021/09/02 06:01:56;;;;;;;11.80;8.70;;;12.40;99.90;;;;;;5125314;28;20215;-36
2021/09/02 06:04:22;;;;;;;12.53;10.20;;;12.50;99.90;;;;;;5126762;28;20270;-36
2021/09/02 06:06:47;;;;;;;13.33;9.50;;;12.50;99.90;;;;;;5125990;28;20266;-36
2021/09/02 06:09:13;;;;;;;12.40;9.13;;;12.60;99.90;;;;;;5126563;28;20203;-37
2021/09/02 06:11:39;;;;;;;11.10;9.27;;;12.80;99.90;;;;;;5125878;28;20586;-36
2021/09/02 06:14:04;;;;;;;12.70;8.50;;;12.80;99.90;;;;;;5112061;27;20183;-37
2021/09/02 06:16:30;;;;;;;13.30;9.50;;;12.90;99.90;;;;;;5126490;27;20183;-36
2021/09/02 06:18:56;;;;;;;13.13;9.87;;;13.00;99.90;;;;;;5129999;27;20189;-37
2021/09/02 06:21:22;;;;;;;12.70;10.43;;;13.00;99.90;;;;;;5131316;27;20190;-36
2021/09/02 06:23:47;;;;;;;13.00;9.43;;;13.10;99.90;;;;;;5127350;27;20207;-37
2021/09/02 06:26:13;;;;;;;12.53;10.07;;;13.10;99.90;;;;;;5131197;27;20187;-36
2021/09/02 06:28:39;;;;;;;13.33;10.67;;;13.20;99.90;;;;;;5121020;27;20576;-36
2021/09/02 06:31:05;;;;;;;11.60;8.93;;;13.40;99.90;;;;;;5129388;27;20189;-36
2021/09/02 06:33:30;;;;;;;13.17;10.20;;;13.40;99.90;;;;;;5129727;27;20218;-37
2021/09/02 06:35:56;;;;;;;13.33;10.10;;;13.50;99.90;;;;;;5129815;27;20190;-36
2021/09/02 06:38:22;;;;;;;13.03;10.30;;;13.70;99.90;;;;;;5130200;27;20326;-36
2021/09/02 06:40:48;;;;;;;14.23;9.47;;;13.80;99.90;;;;;;5130226;27;20421;-37
2021/09/02 06:43:13;;;;;;;14.50;9.20;;;13.90;99.90;;;;;;5121954;27;20208;-36
2021/09/02 06:45:39;;;;;;;17.23;10.60;;;14.10;99.90;;;;;;5124950;27;20191;-36
2021/09/02 06:48:05;;;;;;;12.80;10.20;;;14.20;99.90;;;;;;5129567;27;20429;-36
2021/09/02 06:50:30;;;;;;;13.10;10.33;;;14.40;99.90;;;;;;5128634;27;20206;-36
2021/09/02 06:52:56;;;;;;;15.47;10.50;;;14.50;99.90;;;;;;5126025;27;20247;-37
2021/09/02 06:55:22;;;;;;;17.47;10.37;;;14.60;99.90;;;;;;5129320;27;20245;-37
2021/09/02 06:57:48;;;;;;;16.67;12.87;;;14.70;99.90;;;;;;5126128;27;20297;-36
2021/09/02 07:00:14;;;;;;;18.73;13.53;;;14.80;99.90;;;;;;5120115;27;20603;-37
2021/09/02 07:02:39;;;;;;;21.80;15.30;;;14.90;99.90;;;;;;5128268;27;20504;-37
2021/09/02 07:05:07;;;;;;;22.00;15.03;;;14.90;99.90;;;;;;5129156;27;20417;-37
2021/09/02 07:07:32;;;;;;;25.23;16.97;;;15.00;99.90;;;;;;5130076;27;20215;-37
2021/09/02 07:09:58;;;;;;;21.27;14.77;;;15.00;99.90;;;;;;5129370;27;20463;-36
2021/09/02 07:12:24;;;;;;;24.63;15.20;;;15.00;99.90;;;;;;5110282;27;20657;-36
2021/09/02 07:14:49;;;;;;;20.50;14.60;;;15.10;99.90;;;;;;5129054;27;20175;-37
2021/09/02 07:17:15;;;;;;;23.13;14.97;;;15.10;99.90;;;;;;5128146;27;20249;-36
2021/09/02 07:19:41;;;;;;;27.33;16.30;;;15.10;99.90;;;;;;5129489;27;20179;-37
2021/09/02 07:22:07;;;;;;;19.23;14.17;;;15.10;99.90;;;;;;5121464;27;20464;-36
2021/09/02 07:24:32;;;;;;;19.20;14.17;;;15.10;99.90;;;;;;5121994;27;20227;-37
2021/09/02 07:26:58;;;;;;;20.20;13.87;;;15.10;99.90;;;;;;5126851;27;20191;-37
2021/09/02 07:29:24;;;;;;;19.17;12.77;;;15.10;99.90;;;;;;5120790;27;20278;-37
2021/09/02 07:31:49;;;;;;;18.70;13.83;;;15.10;99.90;;;;;;5128757;27;20178;-36
2021/09/02 07:34:15;;;;;;;16.20;13.20;;;15.10;99.90;;;;;;5128074;27;20700;-36
2021/09/02 07:36:41;;;;;;;17.63;13.87;;;15.00;99.90;;;;;;5127996;27;20183;-37
2021/09/02 07:39:07;;;;;;;19.47;13.90;;;15.10;99.90;;;;;;5128903;27;20602;-37
2021/09/02 07:41:34;;;;;;;18.17;12.70;;;15.10;99.90;;;;;;5102791;28;20179;-36
2021/09/02 07:44:00;;;;;;;21.60;14.07;;;15.10;99.90;;;;;;5111197;27;20444;-36
2021/09/02 07:46:25;;;;;;;18.87;13.80;;;15.00;99.90;;;;;;5126857;27;20934;-36
2021/09/02 07:48:51;;;;;;;22.87;13.97;;;15.10;99.90;;;;;;5126675;27;20579;-36
2021/09/02 07:51:19;;;;;;;17.57;13.20;;;15.10;99.90;;;;;;5117827;27;20180;-36
2021/09/02 07:53:46;;;;;;;21.37;14.50;;;15.10;99.90;;;;;;5128226;27;20202;-37
2021/09/02 07:56:12;;;;;;;19.43;13.70;;;15.10;99.90;;;;;;5127345;27;20439;-36
2021/09/02 07:58:37;;;;;;;23.30;15.47;;;15.10;99.90;;;;;;5124274;27;20429;-36
2021/09/02 08:01:04;;;;;;;20.57;12.93;;;15.20;99.90;;;;;;5123350;27;20409;-36
2021/09/02 08:03:29;;;;;;;20.30;14.40;;;15.30;99.90;;;;;;5099521;28;20222;-36
2021/09/02 08:05:55;;;;;;;20.77;14.10;;;15.30;99.90;;;;;;5108022;28;20429;-37
2021/09/02 08:08:21;;;;;;;20.93;14.60;;;15.40;99.90;;;;;;5122308;27;20350;-36
2021/09/02 08:10:48;;;;;;;23.20;13.80;;;15.50;99.90;;;;;;5127799;27;20980;-37
2021/09/02 08:13:15;;;;;;;22.00;14.23;;;15.60;99.90;;;;;;5127013;27;20275;-37
2021/09/02 08:15:41;;;;;;;21.17;16.10;;;15.70;99.90;;;;;;5127320;27;20405;-36
2021/09/02 08:18:07;;;;;;;21.93;14.00;;;15.70;99.90;;;;;;5107625;27;20541;-37
2021/09/02 08:20:34;;;;;;;19.27;14.23;;;15.80;99.90;;;;;;5128501;27;20428;-37
2021/09/02 08:23:01;;;;;;;25.57;15.87;;;15.80;99.90;;;;;;5127424;27;20456;-37
2021/09/02 08:25:26;;;;;;;19.90;14.77;;;15.80;99.90;;;;;;5109456;27;20515;-36
2021/09/02 08:27:53;;;;;;;17.50;13.60;;;15.90;99.90;;;;;;5127592;27;20545;-36
2021/09/02 08:30:21;;;;;;;22.40;14.40;;;15.90;99.90;;;;;;5118667;27;20179;-38
2021/09/02 08:32:48;;;;;;;22.80;14.43;;;16.00;99.90;;;;;;5128164;27;20961;-36
2021/09/02 08:35:22;;;;;;;21.10;15.13;;;16.10;99.90;;;;;;5108847;28;20991;-36
2021/09/02 08:37:52;;;;;;;23.90;14.20;;;16.20;99.90;;;;;;5116570;27;20786;-36
2021/09/02 08:40:21;;;;;;;20.67;13.50;;;16.20;99.90;;;;;;5129548;27;20962;-36
2021/09/02 08:42:47;;;;;;;18.70;11.80;;;16.40;99.90;;;;;;5127286;27;20456;-36
2021/09/02 08:45:13;;;;;;;17.67;12.43;;;16.40;99.90;;;;;;5117860;27;20929;-36
2021/09/02 08:47:45;;;;;;;14.93;11.33;;;16.50;99.90;;;;;;5126662;27;20771;-36
2021/09/02 08:50:11;;;;;;;15.90;11.53;;;16.60;99.90;;;;;;5127282;27;20782;-37
2021/09/02 08:52:37;;;;;;;15.83;10.33;;;16.70;99.90;;;;;;5127128;27;20574;-36
2021/09/02 08:55:04;;;;;;;16.27;12.80;;;16.80;99.90;;;;;;5127185;27;20521;-37
2021/09/02 08:57:30;;;;;;;19.10;12.70;;;16.80;99.90;;;;;;5108828;27;20207;-37
2021/09/02 08:59:56;;;;;;;20.00;12.60;;;16.90;99.90;;;;;;5116863;27;20437;-36
2021/09/02 09:02:27;;;;;;;16.50;11.67;;;17.00;99.90;;;;;;5104946;27;20464;-36
2021/09/02 09:05:07;;;;;;;20.27;11.50;;;17.10;99.90;;;;;;5126965;27;20589;-36
2021/09/02 09:07:35;;;;;;;19.37;12.50;;;17.20;99.90;;;;;;5126931;27;20428;-37
2021/09/02 09:10:03;;;;;;;17.33;11.93;;;17.30;99.90;;;;;;5127278;27;20432;-36
2021/09/02 09:12:34;;;;;;;22.33;14.00;;;17.30;99.90;;;;;;5126660;27;20488;-37
2021/09/02 09:15:00;;;;;;;19.70;13.63;;;17.50;99.90;;;;;;5096630;27;20452;-36
2021/09/02 09:17:25;;;;;;;19.33;12.93;;;17.60;99.90;;;;;;5104478;27;20429;-36
2021/09/02 09:19:54;;;;;;;17.70;12.73;;;17.70;99.90;;;;;;5127207;27;20257;-36
2021/09/02 09:22:21;;;;;;;25.63;14.90;;;17.70;99.90;;;;;;5126587;27;20700;-37
2021/09/02 09:24:49;;;;;;;19.13;13.40;;;17.80;99.90;;;;;;5127305;27;20556;-37
2021/09/02 09:27:34;;;;;;;16.93;12.60;;;17.80;99.90;;;;;;5125912;27;20420;-37
2021/09/02 09:30:15;;;;;;;16.87;13.30;;;17.90;99.90;;;;;;5099096;28;20428;-36
2021/09/02 09:32:43;;;;;;;19.43;12.90;;;17.90;99.90;;;;;;5125757;27;20413;-38
2021/09/02 09:35:13;;;;;;;20.10;13.17;;;18.00;99.90;;;;;;5125213;27;20487;-37
2021/09/02 09:37:39;;;;;;;17.97;12.87;;;18.10;99.90;;;;;;5126556;27;20425;-36
2021/09/02 09:40:19;;;;;;;20.03;13.93;;;18.20;99.90;;;;;;5108533;27;20766;-37
2021/09/02 09:43:02;;;;;;;20.00;12.30;;;18.30;99.90;;;;;;5108065;28;20797;-36
2021/09/02 09:45:54;;;;;;;15.97;12.20;;;18.40;99.90;;;;;;5114950;27;20456;-36
2021/09/02 09:48:20;;;;;;;13.23;10.73;;;18.60;99.90;;;;;;5123272;27;20417;-36
2021/09/02 09:51:03;;;;;;;17.87;11.63;;;18.70;99.90;;;;;;5125850;28;20430;-36
2021/09/02 09:53:29;;;;;;;19.40;11.67;;;18.70;99.90;;;;;;5126337;28;20259;-37
2021/09/02 09:55:56;;;;;;;17.53;12.87;;;18.80;99.90;;;;;;5126354;28;20433;-37
2021/09/02 09:58:22;;;;;;;16.10;10.90;;;18.90;99.90;;;;;;5126567;28;20840;-36
2021/09/02 10:00:49;;;;;;;16.57;11.97;;;19.00;99.90;;;;;;5116107;28;20481;-37
2021/09/02 10:03:16;;;;;;;15.50;11.93;;;19.10;99.90;;;;;;5125586;28;20464;-37
2021/09/02 10:05:42;;;;;;;16.63;11.50;;;19.10;99.90;;;;;;5125925;28;20425;-36
2021/09/02 10:08:08;;;;;;;19.00;12.50;;;19.20;99.90;;;;;;5126373;28;20440;-36
2021/09/02 10:10:34;;;;;;;15.70;12.30;;;19.30;99.90;;;;;;5126152;28;20417;-36
2021/09/02 10:13:01;;;;;;;15.10;11.27;;;19.40;99.90;;;;;;5126110;28;20503;-36
2021/09/02 10:15:30;;;;;;;15.97;11.83;;;19.40;99.90;;;;;;5111771;28;20761;-36
2021/09/02 10:17:57;;;;;;;16.10;11.00;;;19.50;99.90;;;;;;5124599;28;20416;-37
2021/09/02 10:20:26;;;;;;;15.07;11.40;;;19.60;99.90;;;;;;5126235;28;20520;-36
2021/09/02 10:22:57;;;;;;;18.43;12.00;;;19.60;99.90;;;;;;5126233;28;20495;-37
2021/09/02 10:27:58;;;;;;;14.00;10.80;;;19.60;99.90;;;;;;5126239;28;20465;-37
2021/09/02 10:30:24;;;;;;;14.07;10.07;;;19.60;99.90;;;;;;5117676;28;20544;-36
2021/09/02 10:32:50;;;;;;;18.67;12.10;;;19.70;99.90;;;;;;5124537;28;20506;-35
2021/09/02 10:35:16;;;;;;;14.13;12.17;;;19.80;99.90;;;;;;5121829;28;20194;-37
2021/09/02 10:37:43;;;;;;;16.40;10.87;;;19.80;99.90;;;;;;5125999;28;20191;-37
2021/09/02 10:40:17;;;;;;;17.97;11.20;;;19.90;99.90;;;;;;5126151;28;20508;-37
2021/09/02 10:42:56;;;;;;;14.27;11.43;;;19.90;99.90;;;;;;5125607;28;20458;-37
2021/09/02 10:45:25;;;;;;;13.90;10.70;;;20.00;99.90;;;;;;5116751;28;20441;-37
2021/09/02 10:47:55;;;;;;;16.10;11.83;;;20.10;99.90;;;;;;5125947;28;20813;-37
2021/09/02 10:50:24;;;;;;;14.27;10.70;;;20.10;99.90;;;;;;5126187;28;20416;-37
2021/09/02 10:52:51;;;;;;;13.57;11.30;;;20.10;99.90;;;;;;5107461;28;20427;-36
2021/09/02 10:55:36;;;;;;;15.20;10.23;;;20.10;99.90;;;;;;5125988;28;20429;-36
2021/09/02 10:58:05;;;;;;;14.57;10.67;;;20.20;99.90;;;;;;5126403;28;20731;-36
2021/09/02 11:00:33;;;;;;;13.90;10.37;;;20.30;99.90;;;;;;5118065;27;20522;-36
2021/09/02 11:03:14;;;;;;;14.07;11.07;;;20.30;99.90;;;;;;5123236;27;20883;-37
2021/09/02 11:05:51;;;;;;;17.60;9.80;;;20.40;99.90;;;;;;5128068;27;20424;-37
2021/09/02 11:08:33;;;;;;;14.37;11.43;;;20.50;99.90;;;;;;5129504;27;20452;-37
2021/09/02 11:11:16;;;;;;;12.50;10.27;;;20.60;99.90;;;;;;5118308;27;20424;-38
2021/09/02 11:13:43;;;;;;;14.47;10.00;;;20.60;99.90;;;;;;5124863;27;20418;-37
2021/09/02 11:16:11;;;;;;;12.63;10.83;;;20.70;99.90;;;;;;5110580;27;20445;-37
2021/09/02 11:18:48;;;;;;;12.93;10.30;;;20.80;99.90;;;;;;5128363;27;20418;-37
2021/09/02 11:21:19;;;;;;;19.37;11.07;;;20.80;99.90;;;;;;5110944;27;20443;-37
2021/09/02 11:23:53;;;;;;;13.10;10.57;;;20.90;99.90;;;;;;5129112;27;20969;-37
2021/09/02 11:26:43;;;;;;;15.23;12.00;;;21.00;99.90;;;;;;5128876;27;20785;-38
2021/09/02 11:29:20;;;;;;;15.27;11.50;;;20.90;99.90;;;;;;5129130;27;20474;-37
2021/09/02 11:31:58;;;;;;;16.57;10.77;;;21.00;99.90;;;;;;5105473;27;20500;-37
2021/09/02 11:34:24;;;;;;;14.27;9.70;;;21.00;99.90;;;;;;5129105;27;20424;-37
2021/09/02 11:36:49;;;;;;;12.43;10.73;;;21.10;99.90;;;;;;5110142;27;20903;-36
2021/09/02 11:39:15;;;;;;;12.80;11.23;;;21.10;99.90;;;;;;5128824;27;20605;-37
2021/09/02 11:41:41;;;;;;;12.20;10.27;;;21.20;99.90;;;;;;5110483;27;20502;-37
2021/09/02 11:44:19;;;;;;;11.60;10.23;;;21.30;99.90;;;;;;5128677;27;20219;-37
2021/09/02 11:46:45;;;;;;;11.33;10.00;;;21.40;99.90;;;;;;5117386;27;20187;-37
2021/09/02 11:49:18;;;;;;;14.67;11.50;;;21.40;99.90;;;;;;5128288;27;20867;-38
2021/09/02 11:51:55;;;;;;;10.93;9.73;;;21.40;99.90;;;;;;5110060;27;20511;-38
2021/09/02 11:54:21;;;;;;;13.07;9.90;;;21.50;99.90;;;;;;5128799;27;20427;-37
2021/09/02 11:56:47;;;;;;;14.17;11.00;;;21.60;99.90;;;;;;5128696;27;20427;-37
2021/09/02 11:59:13;;;;;;;16.80;10.97;;;21.60;99.90;;;;;;5110211;27;20425;-37
2021/09/02 12:01:46;;;;;;;14.40;10.80;;;21.60;99.90;;;;;;5119575;27;20195;-37
2021/09/02 12:04:30;;;;;;;13.60;12.20;;;21.60;99.90;;;;;;5122608;27;20599;-37
2021/09/02 12:07:00;;;;;;;12.97;10.53;;;21.70;99.90;;;;;;5128242;27;20470;-37
2021/09/02 12:09:34;;;;;;;10.80;9.47;;;21.60;99.90;;;;;;5128554;27;21008;-37
2021/09/02 12:12:01;;;;;;;13.23;9.83;;;21.60;99.90;;;;;;5127297;27;20469;-37
2021/09/02 12:14:29;;;;;;;14.87;11.10;;;21.70;99.90;;;;;;5098606;28;20925;-38
2021/09/02 12:17:11;;;;;;;14.87;10.27;;;21.70;99.90;;;;;;5111946;27;20542;-36
2021/09/02 12:20:07;;;;;;;14.50;10.07;;;21.80;99.90;;;;;;5109583;27;20514;-37
2021/09/02 12:22:37;;;;;;;14.50;10.70;;;21.90;99.90;;;;;;5109322;27;21020;-37
2021/09/02 12:25:11;;;;;;;11.50;10.00;;;21.90;99.90;;;;;;5127701;27;20423;-37
2021/09/02 12:28:09;;;;;;;14.43;9.10;;;21.90;99.90;;;;;;5128003;27;20420;-37
2021/09/02 12:30:45;;;;;;;11.87;9.83;;;22.00;99.90;;;;;;5123301;27;20533;-37
2021/09/02 12:33:16;;;;;;;14.17;9.90;;;21.90;99.90;;;;;;5125082;27;20426;-36
2021/09/02 12:35:44;;;;;;;11.50;9.10;;;21.90;99.90;;;;;;5102287;27;20435;-37